sensor_id;sensor_type;location;lat;lon;timestamp;P1;durP1;ratioP1;P2;durP2;ratioP2
46122;SDS011;31856;-35.404;149.120;2022-12-07T00:02:17;1.15;;;0.70;;
46122;SDS011;31856;-35.404;149.120;2022-12-07T00:11:34;1.90;;;0.85;;
46122;SDS011;31856;-35.404;149.120;2022-12-07T00:14:20;2.00;;;0.40;;
46122;SDS011;31856;-35.404;149.120;2022-12-07T00:17:13;2.13;;;0.52;;
46122;SDS011;31856;-35.404;149.120;2022-12-07T08:34:42;3.40;;;0.70;;
46122;SDS011;31856;-35.404;149.120;2022-12-07T08:37:12;3.70;;;0.93;;
46122;SDS011;31856;-35.404;149.120;2022-12-07T08:39:42;2.15;;;0.50;;
46122;SDS011;31856;-35.404;149.120;2022-12-07T08:42:12;2.00;;;0.70;;
46122;SDS011;31856;-35.404;149.120;2022-12-07T08:44:42;3.20;;;0.80;;
46122;SDS011;31856;-35.404;149.120;2022-12-07T08:47:12;2.83;;;0.93;;
46122;SDS011;31856;-35.404;149.120;2022-12-07T08:49:43;1.75;;;0.45;;
46122;SDS011;31856;-35.404;149.120;2022-12-07T08:52:23;3.63;;;0.93;;
46122;SDS011;31856;-35.404;149.120;2022-12-07T08:54:53;2.28;;;0.60;;
46122;SDS011;31856;-35.404;149.120;2022-12-07T08:57:24;2.58;;;0.55;;
46122;SDS011;31856;-35.404;149.120;2022-12-07T08:59:54;1.90;;;0.70;;
46122;SDS011;31856;-35.404;149.120;2022-12-07T09:02:25;4.57;;;0.70;;
46122;SDS011;31856;-35.404;149.120;2022-12-07T09:04:55;7.05;;;0.77;;
46122;SDS011;31856;-35.404;149.120;2022-12-07T09:07:25;1.95;;;0.60;;
46122;SDS011;31856;-35.404;149.120;2022-12-07T09:09:56;2.35;;;0.60;;
46122;SDS011;31856;-35.404;149.120;2022-12-07T09:12:26;4.03;;;0.88;;
46122;SDS011;31856;-35.404;149.120;2022-12-07T09:14:57;4.35;;;0.60;;
46122;SDS011;31856;-35.404;149.120;2022-12-07T09:17:31;5.55;;;0.88;;
46122;SDS011;31856;-35.404;149.120;2022-12-07T09:20:02;2.22;;;0.70;;
46122;SDS011;31856;-35.404;149.120;2022-12-07T09:22:32;4.43;;;0.57;;
46122;SDS011;31856;-35.404;149.120;2022-12-07T09:25:02;2.40;;;0.60;;
46122;SDS011;31856;-35.404;149.120;2022-12-07T09:27:33;3.13;;;0.60;;
46122;SDS011;31856;-35.404;149.120;2022-12-07T09:30:04;4.00;;;0.88;;
46122;SDS011;31856;-35.404;149.120;2022-12-07T09:32:34;3.42;;;0.50;;
46122;SDS011;31856;-35.404;149.120;2022-12-07T09:35:05;1.52;;;0.47;;
46122;SDS011;31856;-35.404;149.120;2022-12-07T09:37:35;3.97;;;0.70;;
46122;SDS011;31856;-35.404;149.120;2022-12-07T09:40:05;2.90;;;0.63;;
46122;SDS011;31856;-35.404;149.120;2022-12-07T09:42:36;3.28;;;0.88;;
46122;SDS011;31856;-35.404;149.120;2022-12-07T09:45:13;2.60;;;0.60;;
46122;SDS011;31856;-35.404;149.120;2022-12-07T09:47:45;3.70;;;0.65;;
46122;SDS011;31856;-35.404;149.120;2022-12-07T09:50:16;4.47;;;0.75;;
46122;SDS011;31856;-35.404;149.120;2022-12-07T09:52:50;2.67;;;0.60;;
46122;SDS011;31856;-35.404;149.120;2022-12-07T09:55:27;3.60;;;0.85;;
46122;SDS011;31856;-35.404;149.120;2022-12-07T09:57:58;2.80;;;0.63;;
46122;SDS011;31856;-35.404;149.120;2022-12-07T10:00:28;4.43;;;0.70;;
46122;SDS011;31856;-35.404;149.120;2022-12-07T10:03:00;2.85;;;0.63;;
46122;SDS011;31856;-35.404;149.120;2022-12-07T10:05:30;2.67;;;0.65;;
46122;SDS011;31856;-35.404;149.120;2022-12-07T10:08:03;5.35;;;0.75;;
46122;SDS011;31856;-35.404;149.120;2022-12-07T10:10:34;2.65;;;0.60;;
46122;SDS011;31856;-35.404;149.120;2022-12-07T10:13:09;2.80;;;0.60;;
46122;SDS011;31856;-35.404;149.120;2022-12-07T10:15:48;8.60;;;1.35;;
46122;SDS011;31856;-35.404;149.120;2022-12-07T10:18:26;3.55;;;0.85;;
46122;SDS011;31856;-35.404;149.120;2022-12-07T10:21:01;2.53;;;0.70;;
46122;SDS011;31856;-35.404;149.120;2022-12-07T10:23:33;10.82;;;1.10;;
46122;SDS011;31856;-35.404;149.120;2022-12-07T10:26:47;1.65;;;0.82;;
46122;SDS011;31856;-35.404;149.120;2022-12-07T10:29:40;3.20;;;0.90;;
46122;SDS011;31856;-35.404;149.120;2022-12-07T10:31:56;4.22;;;0.70;;
46122;SDS011;31856;-35.404;149.120;2022-12-07T10:34:30;5.15;;;1.42;;
46122;SDS011;31856;-35.404;149.120;2022-12-07T10:44:50;3.92;;;0.80;;
46122;SDS011;31856;-35.404;149.120;2022-12-07T10:52:45;5.28;;;0.77;;
46122;SDS011;31856;-35.404;149.120;2022-12-07T10:57:56;2.60;;;0.75;;
46122;SDS011;31856;-35.404;149.120;2022-12-07T11:00:36;3.08;;;0.80;;
46122;SDS011;31856;-35.404;149.120;2022-12-07T11:06:39;5.20;;;1.00;;
46122;SDS011;31856;-35.404;149.120;2022-12-07T11:08:50;2.42;;;0.60;;
46122;SDS011;31856;-35.404;149.120;2022-12-07T11:20:35;4.40;;;1.33;;
46122;SDS011;31856;-35.404;149.120;2022-12-07T11:23:11;4.68;;;1.30;;
46122;SDS011;31856;-35.404;149.120;2022-12-07T12:27:18;1.90;;;0.70;;
46122;SDS011;31856;-35.404;149.120;2022-12-07T12:29:54;3.45;;;0.85;;
46122;SDS011;31856;-35.404;149.120;2022-12-07T12:37:55;2.13;;;0.80;;
46122;SDS011;31856;-35.404;149.120;2022-12-07T12:40:45;2.60;;;0.80;;
46122;SDS011;31856;-35.404;149.120;2022-12-07T12:43:50;1.55;;;0.70;;
46122;SDS011;31856;-35.404;149.120;2022-12-07T12:51:46;3.45;;;0.80;;
46122;SDS011;31856;-35.404;149.120;2022-12-07T12:54:21;3.03;;;0.90;;
46122;SDS011;31856;-35.404;149.120;2022-12-07T12:59:32;5.57;;;0.90;;
46122;SDS011;31856;-35.404;149.120;2022-12-07T13:23:38;3.33;;;0.90;;
46122;SDS011;31856;-35.404;149.120;2022-12-07T13:37:00;4.53;;;0.98;;
46122;SDS011;31856;-35.404;149.120;2022-12-07T13:39:33;3.70;;;0.98;;
46122;SDS011;31856;-35.404;149.120;2022-12-07T13:42:12;3.92;;;1.02;;
46122;SDS011;31856;-35.404;149.120;2022-12-07T13:44:45;5.57;;;1.10;;
46122;SDS011;31856;-35.404;149.120;2022-12-07T13:49:51;3.13;;;1.00;;
46122;SDS011;31856;-35.404;149.120;2022-12-07T13:52:26;1.63;;;0.98;;
46122;SDS011;31856;-35.404;149.120;2022-12-07T13:57:28;3.33;;;0.95;;
46122;SDS011;31856;-35.404;149.120;2022-12-07T13:59:59;3.00;;;1.00;;
46122;SDS011;31856;-35.404;149.120;2022-12-07T14:02:30;3.92;;;1.00;;
46122;SDS011;31856;-35.404;149.120;2022-12-07T14:05:08;4.95;;;1.13;;
46122;SDS011;31856;-35.404;149.120;2022-12-07T14:08:21;3.33;;;1.30;;
46122;SDS011;31856;-35.404;149.120;2022-12-07T14:10:35;2.92;;;1.67;;
46122;SDS011;31856;-35.404;149.120;2022-12-07T14:15:54;2.97;;;1.17;;
46122;SDS011;31856;-35.404;149.120;2022-12-07T14:18:28;11.55;;;1.10;;
46122;SDS011;31856;-35.404;149.120;2022-12-07T14:21:05;3.88;;;1.08;;
46122;SDS011;31856;-35.404;149.120;2022-12-07T14:23:36;2.78;;;0.90;;
46122;SDS011;31856;-35.404;149.120;2022-12-07T14:31:49;4.00;;;0.90;;
46122;SDS011;31856;-35.404;149.120;2022-12-07T14:34:20;6.13;;;1.00;;
46122;SDS011;31856;-35.404;149.120;2022-12-07T14:36:51;5.40;;;1.05;;
46122;SDS011;31856;-35.404;149.120;2022-12-07T14:39:22;4.05;;;0.90;;
46122;SDS011;31856;-35.404;149.120;2022-12-07T14:41:52;4.50;;;1.13;;
46122;SDS011;31856;-35.404;149.120;2022-12-07T14:44:23;3.85;;;0.80;;
46122;SDS011;31856;-35.404;149.120;2022-12-07T14:47:01;7.05;;;1.02;;
46122;SDS011;31856;-35.404;149.120;2022-12-07T14:52:33;4.93;;;1.00;;
46122;SDS011;31856;-35.404;149.120;2022-12-07T14:55:29;5.53;;;1.40;;
46122;SDS011;31856;-35.404;149.120;2022-12-07T14:58:01;8.65;;;1.35;;
46122;SDS011;31856;-35.404;149.120;2022-12-07T15:00:32;3.58;;;0.90;;
46122;SDS011;31856;-35.404;149.120;2022-12-07T15:03:02;4.75;;;0.80;;
46122;SDS011;31856;-35.404;149.120;2022-12-07T15:05:33;4.22;;;1.15;;
46122;SDS011;31856;-35.404;149.120;2022-12-07T15:08:04;3.22;;;0.88;;
46122;SDS011;31856;-35.404;149.120;2022-12-07T15:10:34;3.22;;;0.80;;
46122;SDS011;31856;-35.404;149.120;2022-12-07T15:13:07;3.58;;;1.00;;
46122;SDS011;31856;-35.404;149.120;2022-12-07T15:15:55;6.85;;;1.10;;
46122;SDS011;31856;-35.404;149.120;2022-12-07T15:18:25;6.10;;;0.90;;
46122;SDS011;31856;-35.404;149.120;2022-12-07T15:20:56;2.65;;;0.70;;
46122;SDS011;31856;-35.404;149.120;2022-12-07T15:23:26;5.97;;;0.93;;
46122;SDS011;31856;-35.404;149.120;2022-12-07T15:25:57;2.78;;;0.93;;
46122;SDS011;31856;-35.404;149.120;2022-12-07T15:28:26;5.18;;;0.85;;
46122;SDS011;31856;-35.404;149.120;2022-12-07T15:30:56;2.70;;;0.85;;
46122;SDS011;31856;-35.404;149.120;2022-12-07T15:33:46;4.78;;;1.00;;
46122;SDS011;31856;-35.404;149.120;2022-12-07T15:36:20;3.97;;;1.77;;
46122;SDS011;31856;-35.404;149.120;2022-12-07T15:41:54;5.22;;;1.00;;
46122;SDS011;31856;-35.404;149.120;2022-12-07T15:44:24;4.10;;;0.93;;
46122;SDS011;31856;-35.404;149.120;2022-12-07T15:47:12;5.32;;;0.90;;
46122;SDS011;31856;-35.404;149.120;2022-12-07T15:49:42;2.92;;;0.90;;
46122;SDS011;31856;-35.404;149.120;2022-12-07T15:52:12;2.65;;;1.00;;
46122;SDS011;31856;-35.404;149.120;2022-12-07T15:54:43;5.18;;;1.00;;
46122;SDS011;31856;-35.404;149.120;2022-12-07T15:57:13;3.55;;;0.90;;
46122;SDS011;31856;-35.404;149.120;2022-12-07T15:59:50;4.97;;;1.15;;
46122;SDS011;31856;-35.404;149.120;2022-12-07T16:02:20;3.92;;;1.38;;
46122;SDS011;31856;-35.404;149.120;2022-12-07T16:04:51;2.28;;;0.77;;
46122;SDS011;31856;-35.404;149.120;2022-12-07T16:07:22;4.57;;;0.80;;
46122;SDS011;31856;-35.404;149.120;2022-12-07T16:09:52;2.30;;;0.90;;
46122;SDS011;31856;-35.404;149.120;2022-12-07T16:12:22;8.57;;;1.90;;
46122;SDS011;31856;-35.404;149.120;2022-12-07T16:14:53;4.97;;;0.82;;
46122;SDS011;31856;-35.404;149.120;2022-12-07T16:17:23;5.80;;;0.82;;
46122;SDS011;31856;-35.404;149.120;2022-12-07T16:19:53;2.30;;;1.00;;
46122;SDS011;31856;-35.404;149.120;2022-12-07T16:22:23;3.10;;;0.80;;
46122;SDS011;31856;-35.404;149.120;2022-12-07T16:24:53;5.45;;;0.95;;
46122;SDS011;31856;-35.404;149.120;2022-12-07T16:27:23;5.18;;;1.08;;
46122;SDS011;31856;-35.404;149.120;2022-12-07T16:29:54;2.90;;;1.13;;
46122;SDS011;31856;-35.404;149.120;2022-12-07T16:32:24;2.42;;;0.70;;
46122;SDS011;31856;-35.404;149.120;2022-12-07T16:34:55;0.88;;;0.50;;
46122;SDS011;31856;-35.404;149.120;2022-12-07T16:37:25;1.13;;;0.57;;
46122;SDS011;31856;-35.404;149.120;2022-12-07T16:39:55;4.40;;;1.00;;
46122;SDS011;31856;-35.404;149.120;2022-12-07T16:42:26;3.65;;;0.60;;
46122;SDS011;31856;-35.404;149.120;2022-12-07T16:47:46;1.58;;;0.68;;
46122;SDS011;31856;-35.404;149.120;2022-12-07T16:50:16;0.85;;;0.43;;
46122;SDS011;31856;-35.404;149.120;2022-12-07T16:52:47;3.55;;;0.73;;
46122;SDS011;31856;-35.404;149.120;2022-12-07T16:55:18;2.53;;;0.60;;
46122;SDS011;31856;-35.404;149.120;2022-12-07T16:57:48;2.63;;;0.82;;
46122;SDS011;31856;-35.404;149.120;2022-12-07T17:00:18;1.23;;;0.60;;
46122;SDS011;31856;-35.404;149.120;2022-12-07T17:02:48;1.48;;;0.50;;
46122;SDS011;31856;-35.404;149.120;2022-12-07T17:05:18;2.70;;;0.50;;
46122;SDS011;31856;-35.404;149.120;2022-12-07T17:07:48;1.23;;;0.60;;
46122;SDS011;31856;-35.404;149.120;2022-12-07T17:10:18;1.35;;;0.47;;
46122;SDS011;31856;-35.404;149.120;2022-12-07T17:12:48;1.90;;;0.98;;
46122;SDS011;31856;-35.404;149.120;2022-12-07T17:15:19;1.80;;;0.55;;
46122;SDS011;31856;-35.404;149.120;2022-12-07T17:17:53;1.25;;;0.40;;
46122;SDS011;31856;-35.404;149.120;2022-12-07T17:20:26;2.05;;;0.40;;
46122;SDS011;31856;-35.404;149.120;2022-12-07T17:22:56;0.93;;;0.40;;
46122;SDS011;31856;-35.404;149.120;2022-12-07T17:25:27;0.68;;;0.35;;
46122;SDS011;31856;-35.404;149.120;2022-12-07T17:27:57;0.47;;;0.40;;
46122;SDS011;31856;-35.404;149.120;2022-12-07T17:30:28;1.08;;;0.43;;
46122;SDS011;31856;-35.404;149.120;2022-12-07T17:32:58;0.45;;;0.40;;
46122;SDS011;31856;-35.404;149.120;2022-12-07T17:35:28;0.30;;;0.30;;
46122;SDS011;31856;-35.404;149.120;2022-12-07T17:37:57;0.57;;;0.30;;
46122;SDS011;31856;-35.404;149.120;2022-12-07T17:40:27;0.43;;;0.30;;
46122;SDS011;31856;-35.404;149.120;2022-12-07T18:09:36;0.93;;;0.30;;
46122;SDS011;31856;-35.404;149.120;2022-12-07T18:12:07;0.30;;;0.30;;
46122;SDS011;31856;-35.404;149.120;2022-12-07T18:14:37;0.55;;;0.30;;
46122;SDS011;31856;-35.404;149.120;2022-12-07T18:17:07;0.75;;;0.30;;
46122;SDS011;31856;-35.404;149.120;2022-12-07T18:19:37;0.30;;;0.30;;
46122;SDS011;31856;-35.404;149.120;2022-12-07T18:22:07;2.65;;;0.40;;
46122;SDS011;31856;-35.404;149.120;2022-12-07T18:27:42;0.65;;;0.40;;
46122;SDS011;31856;-35.404;149.120;2022-12-07T18:30:12;0.38;;;0.20;;
46122;SDS011;31856;-35.404;149.120;2022-12-07T18:36:06;2.03;;;0.28;;
46122;SDS011;31856;-35.404;149.120;2022-12-07T18:38:36;0.95;;;0.25;;
46122;SDS011;31856;-35.404;149.120;2022-12-07T18:41:07;0.60;;;0.30;;
46122;SDS011;31856;-35.404;149.120;2022-12-07T18:43:38;1.10;;;0.30;;
46122;SDS011;31856;-35.404;149.120;2022-12-07T18:46:08;0.38;;;0.38;;
46122;SDS011;31856;-35.404;149.120;2022-12-07T18:48:39;0.30;;;0.30;;
46122;SDS011;31856;-35.404;149.120;2022-12-07T18:53:58;1.58;;;0.30;;
46122;SDS011;31856;-35.404;149.120;2022-12-07T18:56:29;0.30;;;0.30;;
46122;SDS011;31856;-35.404;149.120;2022-12-07T18:59:00;0.30;;;0.30;;
46122;SDS011;31856;-35.404;149.120;2022-12-07T19:01:49;0.50;;;0.30;;
46122;SDS011;31856;-35.404;149.120;2022-12-07T19:04:20;0.30;;;0.30;;
46122;SDS011;31856;-35.404;149.120;2022-12-07T19:10:19;0.80;;;0.30;;
46122;SDS011;31856;-35.404;149.120;2022-12-07T19:12:50;0.50;;;0.30;;
46122;SDS011;31856;-35.404;149.120;2022-12-07T19:15:20;0.85;;;0.30;;
46122;SDS011;31856;-35.404;149.120;2022-12-07T19:21:24;0.30;;;0.30;;
46122;SDS011;31856;-35.404;149.120;2022-12-07T19:23:56;0.30;;;0.30;;
46122;SDS011;31856;-35.404;149.120;2022-12-07T19:26:26;0.40;;;0.30;;
46122;SDS011;31856;-35.404;149.120;2022-12-07T19:28:56;1.73;;;0.30;;
46122;SDS011;31856;-35.404;149.120;2022-12-07T19:31:25;0.93;;;0.32;;
46122;SDS011;31856;-35.404;149.120;2022-12-07T19:33:56;0.45;;;0.30;;
46122;SDS011;31856;-35.404;149.120;2022-12-07T19:36:27;0.50;;;0.30;;
46122;SDS011;31856;-35.404;149.120;2022-12-07T19:39:10;1.00;;;0.30;;
46122;SDS011;31856;-35.404;149.120;2022-12-07T19:41:44;1.50;;;0.60;;
46122;SDS011;31856;-35.404;149.120;2022-12-07T19:44:19;1.00;;;0.40;;
46122;SDS011;31856;-35.404;149.120;2022-12-07T19:46:51;1.92;;;0.57;;
46122;SDS011;31856;-35.404;149.120;2022-12-07T19:49:30;0.98;;;0.32;;
46122;SDS011;31856;-35.404;149.120;2022-12-07T19:52:05;0.63;;;0.30;;
46122;SDS011;31856;-35.404;149.120;2022-12-07T19:54:35;0.30;;;0.30;;
46122;SDS011;31856;-35.404;149.120;2022-12-07T19:57:06;0.55;;;0.40;;
46122;SDS011;31856;-35.404;149.120;2022-12-07T19:59:42;1.50;;;0.30;;
46122;SDS011;31856;-35.404;149.120;2022-12-07T20:02:14;0.30;;;0.25;;
46122;SDS011;31856;-35.404;149.120;2022-12-07T20:04:45;0.30;;;0.30;;
46122;SDS011;31856;-35.404;149.120;2022-12-07T20:07:15;0.35;;;0.30;;
46122;SDS011;31856;-35.404;149.120;2022-12-07T20:09:46;0.82;;;0.40;;
46122;SDS011;31856;-35.404;149.120;2022-12-07T20:12:16;0.75;;;0.30;;
46122;SDS011;31856;-35.404;149.120;2022-12-07T20:15:05;0.30;;;0.30;;
46122;SDS011;31856;-35.404;149.120;2022-12-07T20:17:36;0.40;;;0.30;;
46122;SDS011;31856;-35.404;149.120;2022-12-07T20:20:06;0.30;;;0.30;;
46122;SDS011;31856;-35.404;149.120;2022-12-07T20:22:37;1.45;;;0.40;;
46122;SDS011;31856;-35.404;149.120;2022-12-07T20:25:08;0.80;;;0.32;;
46122;SDS011;31856;-35.404;149.120;2022-12-07T20:27:38;1.30;;;0.30;;
46122;SDS011;31856;-35.404;149.120;2022-12-07T20:30:08;0.95;;;0.32;;
46122;SDS011;31856;-35.404;149.120;2022-12-07T20:32:39;2.10;;;0.35;;
46122;SDS011;31856;-35.404;149.120;2022-12-07T20:35:10;0.25;;;0.25;;
46122;SDS011;31856;-35.404;149.120;2022-12-07T20:37:40;1.63;;;0.40;;
46122;SDS011;31856;-35.404;149.120;2022-12-07T20:40:10;0.57;;;0.57;;
46122;SDS011;31856;-35.404;149.120;2022-12-07T20:42:40;0.30;;;0.30;;
46122;SDS011;31856;-35.404;149.120;2022-12-07T20:45:11;0.38;;;0.30;;
46122;SDS011;31856;-35.404;149.120;2022-12-07T20:47:41;3.20;;;0.40;;
46122;SDS011;31856;-35.404;149.120;2022-12-07T20:50:11;0.95;;;0.40;;
46122;SDS011;31856;-35.404;149.120;2022-12-07T20:52:41;0.68;;;0.30;;
46122;SDS011;31856;-35.404;149.120;2022-12-07T20:55:11;1.00;;;0.30;;
46122;SDS011;31856;-35.404;149.120;2022-12-07T20:57:41;0.30;;;0.30;;
46122;SDS011;31856;-35.404;149.120;2022-12-07T21:00:12;0.40;;;0.40;;
46122;SDS011;31856;-35.404;149.120;2022-12-07T21:02:43;1.95;;;0.30;;
46122;SDS011;31856;-35.404;149.120;2022-12-07T21:05:14;0.40;;;0.30;;
46122;SDS011;31856;-35.404;149.120;2022-12-07T21:07:46;2.17;;;0.40;;
46122;SDS011;31856;-35.404;149.120;2022-12-07T21:10:17;0.60;;;0.30;;
46122;SDS011;31856;-35.404;149.120;2022-12-07T21:12:48;1.17;;;0.40;;
46122;SDS011;31856;-35.404;149.120;2022-12-07T21:15:21;0.55;;;0.30;;
46122;SDS011;31856;-35.404;149.120;2022-12-07T21:17:51;0.68;;;0.30;;
46122;SDS011;31856;-35.404;149.120;2022-12-07T21:20:22;1.33;;;0.40;;
46122;SDS011;31856;-35.404;149.120;2022-12-07T21:22:53;2.25;;;0.40;;
46122;SDS011;31856;-35.404;149.120;2022-12-07T21:25:23;1.23;;;0.45;;
46122;SDS011;31856;-35.404;149.120;2022-12-07T21:27:54;0.45;;;0.40;;
46122;SDS011;31856;-35.404;149.120;2022-12-07T21:30:27;1.83;;;0.55;;
